createdAt,value
2022-08-23T00:01:31.187Z,22.20
2022-08-23T00:04:05.160Z,22.20
2022-08-23T00:06:32.822Z,22.10
2022-08-23T00:09:00.538Z,22.10
2022-08-23T00:11:30.360Z,22.00
2022-08-23T00:13:58.506Z,22.00
2022-08-23T00:16:25.364Z,22.00
2022-08-23T00:18:52.570Z,22.00
2022-08-23T00:21:20.308Z,21.90
2022-08-23T00:23:47.527Z,21.90
2022-08-23T00:26:14.767Z,21.90
2022-08-23T00:28:41.682Z,21.80
2022-08-23T00:31:08.528Z,21.80
2022-08-23T00:33:35.620Z,21.70
2022-08-23T00:36:02.688Z,21.70
2022-08-23T00:38:33.137Z,21.60
2022-08-23T00:41:03.425Z,21.60
2022-08-23T00:43:55.137Z,21.50
2022-08-23T00:47:06.096Z,21.50
2022-08-23T00:49:35.953Z,21.40
2022-08-23T00:52:18.187Z,21.40
2022-08-23T00:54:45.636Z,21.40
2022-08-23T00:57:15.833Z,21.30
2022-08-23T00:59:42.750Z,21.20
2022-08-23T01:02:10.733Z,21.00
2022-08-23T01:04:42.018Z,21.00
2022-08-23T01:07:21.080Z,20.90
2022-08-23T01:09:51.137Z,20.80
2022-08-23T01:12:32.996Z,20.70
2022-08-23T01:15:09.959Z,20.70
2022-08-23T01:17:43.852Z,20.80
2022-08-23T01:20:16.060Z,20.90
2022-08-23T01:23:01.708Z,20.90
2022-08-23T01:25:32.543Z,20.80
2022-08-23T01:28:00.549Z,20.90
2022-08-23T01:30:32.971Z,20.90
2022-08-23T01:33:05.217Z,20.90
2022-08-23T01:35:43.300Z,20.80
2022-08-23T01:38:12.330Z,20.80
2022-08-23T01:40:40.464Z,20.90
2022-08-23T01:43:08.278Z,20.80
2022-08-23T01:45:39.631Z,20.70
2022-08-23T01:48:08.514Z,20.60
2022-08-23T01:53:08.923Z,20.60
2022-08-23T01:55:37.353Z,20.60
2022-08-23T01:58:06.920Z,20.70
2022-08-23T02:00:38.187Z,20.70
2022-08-23T02:03:06.902Z,20.70
2022-08-23T02:05:37.317Z,20.70
2022-08-23T02:08:24.508Z,20.70
2022-08-23T02:10:54.500Z,20.70
2022-08-23T02:13:21.688Z,20.60
2022-08-23T02:15:51.443Z,20.60
2022-08-23T02:18:21.230Z,20.60
2022-08-23T02:20:52.924Z,20.60
2022-08-23T02:23:21.937Z,20.60
2022-08-23T02:25:51.506Z,20.40
2022-08-23T02:28:21.323Z,20.30
2022-08-23T02:30:49.881Z,20.30
2022-08-23T02:33:17.177Z,20.30
2022-08-23T02:35:45.339Z,20.30
2022-08-23T02:38:13.204Z,20.30
2022-08-23T02:40:41.539Z,20.30
2022-08-23T02:43:08.634Z,20.30
2022-08-23T02:45:37.512Z,20.30
2022-08-23T02:48:05.440Z,20.20
2022-08-23T02:50:41.368Z,20.20
2022-08-23T02:53:09.430Z,20.20
2022-08-23T02:55:36.648Z,20.20
2022-08-23T02:58:05.607Z,20.20
2022-08-23T03:00:32.865Z,20.20
2022-08-23T03:03:00.213Z,20.30
2022-08-23T03:05:27.542Z,20.40
2022-08-23T03:07:54.821Z,20.40
2022-08-23T03:10:22.432Z,20.40
2022-08-23T03:12:57.831Z,20.40
2022-08-23T03:15:25.569Z,20.40
2022-08-23T03:17:53.505Z,20.30
2022-08-23T03:20:20.666Z,20.30
2022-08-23T03:22:48.414Z,20.20
2022-08-23T03:25:23.885Z,20.20
2022-08-23T03:28:07.596Z,20.30
2022-08-23T03:30:39.771Z,20.30
2022-08-23T03:33:08.257Z,20.20
2022-08-23T03:35:35.800Z,20.10
2022-08-23T03:38:03.990Z,20.20
2022-08-23T03:40:31.259Z,20.20
2022-08-23T03:42:58.334Z,20.10
2022-08-23T03:45:28.330Z,20.20
2022-08-23T03:47:55.966Z,20.20
2022-08-23T03:50:23.204Z,20.10
2022-08-23T03:52:51.596Z,20.10
2022-08-23T03:55:18.857Z,20.10
2022-08-23T03:57:49.186Z,20.10
2022-08-23T04:00:20.535Z,20.00
2022-08-23T04:02:50.826Z,20.00
2022-08-23T04:05:18.904Z,20.10
2022-08-23T04:07:53.015Z,20.00
2022-08-23T04:10:23.731Z,20.00
2022-08-23T04:12:54.848Z,20.00
2022-08-23T04:15:22.659Z,20.00
2022-08-23T04:17:49.678Z,20.00
2022-08-23T04:20:17.985Z,19.90
2022-08-23T04:22:54.509Z,20.00
2022-08-23T04:25:34.877Z,20.00
2022-08-23T04:28:04.514Z,20.10
2022-08-23T04:30:33.345Z,20.10
2022-08-23T04:33:01.881Z,20.10
2022-08-23T04:35:33.495Z,20.10
2022-08-23T04:38:00.682Z,20.20
2022-08-23T04:40:46.607Z,20.20
2022-08-23T04:43:15.714Z,20.10
2022-08-23T04:45:43.057Z,20.10
2022-08-23T04:48:19.545Z,20.10
2022-08-23T04:50:49.740Z,20.10
2022-08-23T04:53:19.047Z,20.10
2022-08-23T04:55:56.953Z,20.10
2022-08-23T04:58:24.020Z,20.10
2022-08-23T05:00:53.086Z,20.20
2022-08-23T05:03:27.576Z,20.20
2022-08-23T05:05:58.134Z,20.20
2022-08-23T05:08:30.889Z,20.20
2022-08-23T05:11:06.164Z,20.20
2022-08-23T05:13:34.767Z,20.20
2022-08-23T05:16:05.693Z,20.20
2022-08-23T05:18:36.412Z,20.20
2022-08-23T05:21:04.180Z,20.30
2022-08-23T05:23:32.245Z,20.30
2022-08-23T05:26:12.317Z,20.30
2022-08-23T05:28:45.032Z,20.30
2022-08-23T05:31:18.694Z,20.40
2022-08-23T05:33:55.431Z,20.30
2022-08-23T05:36:38.499Z,20.40
2022-08-23T05:39:24.144Z,20.30
2022-08-23T05:42:00.088Z,20.30
2022-08-23T05:44:27.075Z,20.30
2022-08-23T05:46:54.158Z,20.30
2022-08-23T05:49:30.345Z,20.40
2022-08-23T05:51:58.490Z,20.40
2022-08-23T05:54:33.076Z,20.50
2022-08-23T05:57:26.714Z,20.50
2022-08-23T05:59:53.805Z,20.50
2022-08-23T06:02:21.422Z,20.40
2022-08-23T06:04:48.685Z,20.40
2022-08-23T06:07:16.880Z,20.50
2022-08-23T06:09:44.240Z,20.50
2022-08-23T06:12:11.874Z,20.60
2022-08-23T06:14:39.365Z,20.60
2022-08-23T06:17:06.571Z,20.80
2022-08-23T06:19:35.196Z,20.70
2022-08-23T06:22:19.238Z,20.70
2022-08-23T06:24:49.335Z,20.80
2022-08-23T06:27:17.196Z,21.00
2022-08-23T06:29:44.612Z,21.10
2022-08-23T06:32:29.614Z,21.10
2022-08-23T06:35:33.296Z,21.20
2022-08-23T06:38:08.079Z,21.30
2022-08-23T06:40:50.365Z,21.40
2022-08-23T06:43:40.323Z,21.50
2022-08-23T06:46:29.228Z,21.60
2022-08-23T06:48:57.941Z,21.60
2022-08-23T06:51:29.261Z,21.70
2022-08-23T06:54:19.370Z,21.70
2022-08-23T06:56:54.150Z,21.80
2022-08-23T06:59:33.497Z,21.90
2022-08-23T07:02:15.370Z,21.90
2022-08-23T07:05:08.827Z,22.00
2022-08-23T07:07:49.966Z,22.10
2022-08-23T07:10:16.989Z,22.20
2022-08-23T07:12:44.332Z,22.30
2022-08-23T07:15:13.833Z,22.40
2022-08-23T07:17:45.495Z,22.60
2022-08-23T07:20:13.960Z,22.70
2022-08-23T07:22:44.535Z,22.70
2022-08-23T07:25:12.208Z,22.80
2022-08-23T07:27:40.509Z,23.10
2022-08-23T07:30:09.532Z,23.00
2022-08-23T07:32:40.503Z,23.10
2022-08-23T07:35:21.637Z,23.10
2022-08-23T07:37:50.984Z,23.20
2022-08-23T07:40:20.726Z,23.30
2022-08-23T07:42:56.628Z,23.40
2022-08-23T07:45:24.076Z,23.50
2022-08-23T07:47:54.570Z,23.60
2022-08-23T07:50:24.623Z,23.70
2022-08-23T07:52:57.854Z,23.80
2022-08-23T07:55:25.080Z,23.80
2022-08-23T07:58:18.400Z,24.00
2022-08-23T08:01:22.271Z,24.00
2022-08-23T08:03:54.068Z,24.30
2022-08-23T08:06:33.522Z,24.30
2022-08-23T08:09:00.954Z,24.40
2022-08-23T08:11:35.136Z,24.50
2022-08-23T08:14:07.224Z,24.60
2022-08-23T08:16:44.459Z,24.60
2022-08-23T08:19:18.822Z,24.70
2022-08-23T08:22:05.467Z,24.80
2022-08-23T08:25:11.135Z,24.80
2022-08-23T08:27:40.159Z,24.90
2022-08-23T08:30:09.279Z,25.10
2022-08-23T08:32:37.873Z,25.10
2022-08-23T08:35:06.794Z,25.20
2022-08-23T08:37:34.140Z,25.20
2022-08-23T08:40:01.626Z,25.30
2022-08-23T08:42:35.001Z,25.40
2022-08-23T08:45:21.862Z,25.50
2022-08-23T08:47:59.601Z,25.70
2022-08-23T08:50:29.925Z,25.70
2022-08-23T08:53:09.331Z,25.70
2022-08-23T08:56:21.650Z,25.70
2022-08-23T08:59:02.252Z,25.80
2022-08-23T09:01:33.803Z,25.90
2022-08-23T09:04:02.339Z,25.90
2022-08-23T09:06:42.079Z,26.00
2022-08-23T09:09:28.419Z,26.10
2022-08-23T09:12:16.135Z,26.20
2022-08-23T09:15:15.435Z,26.30
2022-08-23T09:17:57.245Z,26.30
2022-08-23T09:20:32.962Z,26.30
2022-08-23T09:23:10.056Z,26.30
2022-08-23T09:25:39.255Z,26.50
2022-08-23T09:28:15.828Z,26.40
2022-08-23T09:30:48.621Z,26.50
2022-08-23T09:33:20.433Z,26.50
2022-08-23T09:36:06.303Z,26.70
2022-08-23T09:38:35.952Z,26.80
2022-08-23T09:41:19.572Z,26.80
2022-08-23T09:43:50.933Z,26.80
2022-08-23T09:46:28.015Z,26.90
2022-08-23T09:48:58.364Z,27.00
2022-08-23T09:51:42.862Z,27.00
2022-08-23T09:54:32.300Z,27.00
2022-08-23T09:57:06.099Z,27.10
2022-08-23T09:59:41.853Z,27.10
2022-08-23T10:02:30.701Z,27.30
2022-08-23T10:05:31.307Z,27.30
2022-08-23T10:08:01.318Z,27.40
2022-08-23T10:10:50.121Z,27.40
2022-08-23T10:13:21.834Z,27.40
2022-08-23T10:15:57.870Z,27.60
2022-08-23T10:18:51.173Z,27.50
2022-08-23T10:22:02.105Z,27.50
2022-08-23T10:24:39.037Z,27.50
2022-08-23T10:27:54.418Z,27.60
2022-08-23T10:30:27.710Z,27.60
2022-08-23T10:33:18.621Z,27.90
2022-08-23T10:36:14.438Z,27.80
2022-08-23T10:38:56.752Z,27.80
2022-08-23T10:41:58.897Z,27.80
2022-08-23T10:44:34.421Z,27.80
2022-08-23T10:47:18.385Z,27.70
2022-08-23T10:49:50.770Z,27.80
2022-08-23T10:52:24.986Z,27.90
2022-08-23T10:55:17.332Z,28.30
2022-08-23T10:57:48.035Z,28.50
2022-08-23T11:00:22.841Z,28.30
2022-08-23T11:03:12.597Z,28.30
2022-08-23T11:05:40.949Z,28.20
2022-08-23T11:08:47.894Z,28.10
2022-08-23T11:11:36.692Z,28.10
2022-08-23T11:14:04.285Z,28.00
2022-08-23T11:16:32.223Z,27.90
2022-08-23T11:19:02.809Z,27.90
2022-08-23T11:21:41.133Z,27.90
2022-08-23T11:24:13.288Z,28.20
2022-08-23T11:26:41.399Z,28.50
2022-08-23T11:29:14.418Z,28.60
2022-08-23T11:31:58.520Z,28.70
2022-08-23T11:34:31.061Z,28.80
2022-08-23T11:37:27.130Z,29.00
2022-08-23T11:39:58.813Z,28.90
2022-08-23T11:42:43.123Z,29.10
2022-08-23T11:45:27.188Z,29.30
2022-08-23T11:48:23.409Z,29.20
2022-08-23T11:51:11.755Z,29.10
2022-08-23T11:54:01.741Z,28.90
2022-08-23T11:56:53.166Z,28.90
2022-08-23T11:59:47.422Z,29.00
2022-08-23T12:02:38.346Z,29.10
2022-08-23T12:05:23.420Z,29.10
2022-08-23T12:08:02.917Z,29.20
2022-08-23T12:10:42.572Z,29.30
2022-08-23T12:13:18.362Z,29.50
2022-08-23T12:16:06.915Z,29.50
2022-08-23T12:18:49.564Z,29.40
2022-08-23T12:21:47.578Z,29.30
2022-08-23T12:24:40.534Z,29.30
2022-08-23T12:27:45.581Z,29.30
2022-08-23T12:30:33.811Z,29.50
2022-08-23T12:33:07.026Z,29.60
2022-08-23T12:35:34.678Z,29.90
2022-08-23T12:38:16.265Z,29.90
2022-08-23T12:40:48.129Z,30.00
2022-08-23T12:43:24.104Z,30.00
2022-08-23T12:45:56.793Z,29.90
2022-08-23T12:48:26.680Z,29.80
2022-08-23T12:51:08.225Z,30.00
2022-08-23T12:53:45.238Z,30.70
2022-08-23T12:56:32.027Z,30.50
2022-08-23T12:59:05.542Z,30.50
2022-08-23T13:01:37.586Z,30.50
2022-08-23T13:04:11.257Z,30.50
2022-08-23T13:06:41.063Z,30.50
2022-08-23T13:09:53.860Z,30.40
2022-08-23T13:12:23.358Z,30.20
2022-08-23T13:14:52.824Z,29.90
2022-08-23T13:17:25.294Z,29.90
2022-08-23T13:20:18.748Z,30.00
2022-08-23T13:23:04.593Z,30.70
2022-08-23T13:25:38.365Z,30.90
2022-08-23T13:28:22.548Z,30.90
2022-08-23T13:31:03.028Z,30.80
2022-08-23T13:33:31.062Z,30.40
2022-08-23T13:36:19.880Z,30.20
2022-08-23T13:38:48.838Z,30.40
2022-08-23T13:41:38.375Z,30.60
2022-08-23T13:44:09.726Z,30.50
2022-08-23T13:46:45.283Z,30.50
2022-08-23T13:49:22.672Z,30.50
2022-08-23T13:54:50.856Z,31.10
2022-08-23T13:57:22.053Z,31.10
2022-08-23T14:00:00.905Z,31.20
2022-08-23T14:02:29.441Z,31.40
2022-08-23T14:04:56.892Z,31.30
2022-08-23T14:07:23.823Z,31.50
2022-08-23T14:09:54.860Z,31.50
2022-08-23T14:12:27.537Z,31.50
2022-08-23T14:14:56.777Z,31.40
2022-08-23T14:17:24.543Z,31.30
2022-08-23T14:20:31.889Z,31.30
2022-08-23T14:22:40.449Z,31.30
2022-08-23T14:25:08.998Z,31.00
2022-08-23T14:27:39.236Z,31.20
2022-08-23T14:30:08.519Z,31.20
2022-08-23T14:32:38.007Z,31.30
2022-08-23T14:35:08.149Z,31.40
2022-08-23T14:40:25.443Z,31.80
2022-08-23T14:42:53.580Z,31.70
2022-08-23T14:45:21.290Z,31.50
2022-08-23T14:47:48.362Z,31.50
2022-08-23T14:50:16.218Z,31.60
2022-08-23T14:52:45.910Z,31.80
2022-08-23T14:55:14.614Z,31.90
2022-08-23T14:57:42.005Z,31.90
2022-08-23T15:00:14.082Z,32.00
2022-08-23T15:02:50.715Z,32.10
2022-08-23T15:05:18.422Z,32.10
2022-08-23T15:07:45.392Z,32.10
2022-08-23T15:13:28.361Z,32.30
2022-08-23T15:15:52.037Z,32.60
2022-08-23T15:18:19.862Z,32.50
2022-08-23T15:20:47.185Z,32.40
2022-08-23T15:23:14.632Z,32.30
2022-08-23T15:25:43.747Z,32.10
2022-08-23T15:28:17.014Z,32.20
2022-08-23T15:30:45.988Z,32.10
2022-08-23T15:33:14.212Z,32.00
2022-08-23T15:35:48.791Z,32.20
2022-08-23T15:38:19.020Z,32.40
2022-08-23T15:40:46.351Z,32.60
2022-08-23T15:43:14.166Z,32.60
2022-08-23T15:45:41.492Z,32.60
2022-08-23T15:48:39.802Z,32.70
2022-08-23T15:51:07.517Z,32.80
2022-08-23T15:53:36.292Z,32.70
2022-08-23T15:56:09.277Z,32.70
2022-08-23T15:58:38.883Z,32.80
2022-08-23T16:01:06.769Z,32.70
2022-08-23T16:03:34.016Z,32.70
2022-08-23T16:06:02.624Z,32.90
2022-08-23T16:08:33.199Z,32.80
2022-08-23T16:11:09.255Z,32.60
2022-08-23T16:13:40.926Z,32.40
2022-08-23T16:16:16.518Z,32.20
2022-08-23T16:18:44.558Z,32.20
2022-08-23T16:21:12.929Z,32.20
2022-08-23T16:23:43.318Z,32.70
2022-08-23T16:26:16.428Z,32.90
2022-08-23T16:28:47.905Z,33.00
2022-08-23T16:31:15.879Z,33.00
2022-08-23T16:33:44.223Z,32.70
2022-08-23T16:36:11.503Z,32.60
2022-08-23T16:38:38.987Z,32.60
2022-08-23T16:41:06.333Z,32.40
2022-08-23T16:43:33.344Z,32.40
2022-08-23T16:46:00.304Z,32.40
2022-08-23T16:48:27.891Z,32.50
2022-08-23T16:50:55.063Z,32.50
2022-08-23T16:53:22.104Z,32.30
2022-08-23T16:55:49.294Z,32.10
2022-08-23T16:58:16.371Z,32.10
2022-08-23T17:00:43.588Z,32.20
2022-08-23T17:03:10.942Z,32.20
2022-08-23T17:05:38.992Z,32.20
2022-08-23T17:08:06.365Z,32.10
2022-08-23T17:10:33.749Z,31.90
2022-08-23T17:13:01.929Z,31.90
2022-08-23T17:15:32.613Z,31.90
2022-08-23T17:18:01.156Z,31.90
2022-08-23T17:20:31.689Z,32.00
2022-08-23T17:22:59.003Z,31.90
2022-08-23T17:25:26.937Z,31.90
2022-08-23T17:27:55.123Z,31.80
2022-08-23T17:30:23.922Z,31.70
2022-08-23T17:32:52.138Z,31.50
2022-08-23T17:35:23.420Z,31.30
2022-08-23T17:37:50.716Z,31.10
2022-08-23T17:40:21.454Z,31.10
2022-08-23T17:42:48.866Z,31.10
2022-08-23T17:45:16.166Z,31.20
2022-08-23T17:47:43.675Z,31.00
2022-08-23T17:50:11.905Z,30.90
2022-08-23T17:52:39.943Z,30.80
2022-08-23T17:55:07.762Z,30.70
2022-08-23T17:57:35.140Z,30.60
2022-08-23T18:00:04.028Z,30.50
2022-08-23T18:02:31.399Z,30.30
2022-08-23T18:04:58.798Z,30.20
2022-08-23T18:07:27.029Z,30.20
2022-08-23T18:09:54.143Z,30.10
2022-08-23T18:12:21.442Z,30.00
2022-08-23T18:14:49.281Z,30.00
2022-08-23T18:17:17.005Z,30.00
2022-08-23T18:19:44.051Z,30.00
2022-08-23T18:22:10.999Z,30.00
2022-08-23T18:24:38.464Z,30.10
2022-08-23T18:27:26.002Z,29.80
2022-08-23T18:29:53.210Z,29.60
2022-08-23T18:32:21.445Z,29.50
2022-08-23T18:34:48.701Z,29.40
2022-08-23T18:37:21.712Z,29.40
2022-08-23T18:39:49.308Z,29.40
2022-08-23T18:42:17.222Z,29.30
2022-08-23T18:44:45.525Z,29.20
2022-08-23T18:47:12.544Z,29.20
2022-08-23T18:49:39.968Z,29.10
2022-08-23T18:52:07.463Z,29.10
2022-08-23T18:54:36.436Z,29.00
2022-08-23T18:57:04.162Z,28.90
2022-08-23T18:59:31.265Z,28.80
2022-08-23T19:01:58.479Z,28.80
2022-08-23T19:04:26.448Z,28.70
2022-08-23T19:06:54.351Z,28.70
2022-08-23T19:09:22.122Z,28.70
2022-08-23T19:11:49.214Z,28.60
2022-08-23T19:14:16.499Z,28.50
2022-08-23T19:16:48.112Z,28.40
2022-08-23T19:19:16.756Z,28.40
2022-08-23T19:21:43.786Z,28.30
2022-08-23T19:24:10.735Z,28.30
2022-08-23T19:26:37.855Z,28.30
2022-08-23T19:29:08.067Z,28.20
2022-08-23T19:31:41.075Z,28.10
2022-08-23T19:34:09.899Z,28.10
2022-08-23T19:36:46.328Z,28.00
2022-08-23T19:39:15.219Z,28.00
2022-08-23T19:41:42.504Z,27.90
2022-08-23T19:44:10.711Z,27.90
2022-08-23T19:46:42.065Z,27.90
2022-08-23T19:49:15.700Z,27.90
2022-08-23T19:51:43.835Z,27.80
2022-08-23T19:54:12.589Z,27.70
2022-08-23T19:56:49.057Z,27.70
2022-08-23T19:59:25.410Z,27.70
2022-08-23T20:01:53.930Z,27.60
2022-08-23T20:04:22.415Z,27.50
2022-08-23T20:06:49.385Z,27.50
2022-08-23T20:09:18.210Z,27.40
2022-08-23T20:11:45.354Z,27.40
2022-08-23T20:14:12.425Z,27.40
2022-08-23T20:16:41.484Z,27.40
2022-08-23T20:19:10.253Z,27.30
2022-08-23T20:21:38.736Z,27.20
2022-08-23T20:24:10.169Z,27.30
2022-08-23T20:26:48.533Z,27.10
2022-08-23T20:29:20.199Z,27.10
2022-08-23T20:31:50.920Z,27.10
2022-08-23T20:34:18.091Z,27.00
2022-08-23T20:36:45.767Z,27.00
2022-08-23T20:39:13.393Z,27.00
2022-08-23T20:41:41.041Z,26.90
2022-08-23T20:44:09.089Z,26.90
2022-08-23T20:46:37.183Z,26.90
2022-08-23T20:49:05.005Z,26.90
2022-08-23T20:51:36.701Z,26.80
2022-08-23T20:54:08.112Z,26.80
2022-08-23T20:56:37.329Z,26.70
2022-08-23T20:59:08.289Z,26.70
2022-08-23T21:01:36.165Z,26.60
2022-08-23T21:04:03.588Z,26.60
2022-08-23T21:06:46.755Z,26.50
2022-08-23T21:09:20.478Z,26.40
2022-08-23T21:11:50.890Z,26.40
2022-08-23T21:14:20.647Z,26.30
2022-08-23T21:16:48.181Z,26.30
2022-08-23T21:19:16.396Z,26.20
2022-08-23T21:21:43.726Z,26.20
2022-08-23T21:24:11.745Z,26.20
2022-08-23T21:26:40.199Z,26.10
2022-08-23T21:29:08.067Z,26.10
2022-08-23T21:31:36.432Z,26.00
2022-08-23T21:34:04.260Z,26.10
2022-08-23T21:36:31.411Z,25.90
2022-08-23T21:38:58.335Z,25.80
2022-08-23T21:41:37.432Z,25.80
2022-08-23T21:44:08.430Z,25.70
2022-08-23T21:46:36.064Z,25.60
2022-08-23T21:49:04.374Z,25.50
2022-08-23T21:51:31.597Z,25.50
2022-08-23T21:54:02.829Z,25.40
2022-08-23T21:56:30.290Z,25.30
2022-08-23T21:59:02.220Z,25.20
2022-08-23T22:01:30.493Z,25.10
2022-08-23T22:03:57.718Z,25.10
2022-08-23T22:06:25.177Z,25.10
2022-08-23T22:08:52.244Z,25.00
2022-08-23T22:11:22.954Z,24.90
2022-08-23T22:13:51.885Z,24.90
2022-08-23T22:16:19.958Z,24.80
2022-08-23T22:18:47.339Z,25.00
2022-08-23T22:21:14.259Z,24.80
2022-08-23T22:23:44.751Z,24.80
2022-08-23T22:26:13.969Z,24.70
2022-08-23T22:28:45.032Z,24.70
2022-08-23T22:31:15.279Z,24.70
2022-08-23T22:33:43.808Z,24.70
2022-08-23T22:36:18.938Z,24.60
2022-08-23T22:38:49.433Z,24.60
2022-08-23T22:41:24.059Z,24.50
2022-08-23T22:44:00.710Z,24.40
2022-08-23T22:46:29.874Z,24.30
2022-08-23T22:48:57.446Z,24.30
2022-08-23T22:51:28.138Z,24.30
2022-08-23T22:53:59.693Z,24.20
2022-08-23T22:56:48.170Z,24.20
2022-08-23T22:59:16.850Z,24.10
2022-08-23T23:01:50.355Z,24.10
2022-08-23T23:04:18.360Z,24.10
2022-08-23T23:06:48.017Z,24.00
2022-08-23T23:09:15.685Z,23.90
2022-08-23T23:11:43.667Z,23.90
2022-08-23T23:14:15.530Z,23.90
2022-08-23T23:16:43.150Z,23.80
2022-08-23T23:19:30.314Z,23.80
2022-08-23T23:21:58.588Z,23.70
2022-08-23T23:24:32.066Z,23.70
2022-08-23T23:27:00.208Z,23.70
2022-08-23T23:29:28.151Z,23.70
2022-08-23T23:31:56.198Z,23.70
2022-08-23T23:34:23.952Z,23.60
2022-08-23T23:36:56.008Z,23.60
2022-08-23T23:39:23.606Z,23.60
2022-08-23T23:41:51.004Z,23.50
2022-08-23T23:44:24.290Z,23.40
2022-08-23T23:47:01.936Z,23.30
2022-08-23T23:49:32.562Z,23.30
2022-08-23T23:52:02.144Z,23.30
2022-08-23T23:54:29.215Z,23.30
2022-08-23T23:56:56.357Z,23.30
2022-08-23T23:59:23.403Z,23.40
